createdAt,value
2023-04-04T00:01:27.401Z,1.98
2023-04-04T00:06:52.426Z,1.65
2023-04-04T00:12:16.477Z,1.88
2023-04-04T00:17:38.350Z,1.92
2023-04-04T00:23:00.650Z,2.10
2023-04-04T00:28:23.384Z,1.67
2023-04-04T00:33:45.606Z,1.63
2023-04-04T00:39:07.643Z,1.70
2023-04-04T00:44:29.374Z,1.65
2023-04-04T00:49:52.398Z,1.52
2023-04-04T00:55:14.358Z,1.70
2023-04-04T01:00:36.283Z,1.70
2023-04-04T01:05:58.353Z,1.58
2023-04-04T01:11:22.409Z,1.67
2023-04-04T01:16:44.508Z,1.30
2023-04-04T01:22:10.634Z,2.20
2023-04-04T01:27:33.383Z,1.95
2023-04-04T01:33:06.468Z,1.20
2023-04-04T01:38:44.351Z,1.60
2023-04-04T01:44:06.342Z,1.58
2023-04-04T01:49:31.342Z,1.67
2023-04-04T01:54:53.327Z,1.70
2023-04-04T02:00:16.628Z,1.75
2023-04-04T02:05:38.312Z,1.52
2023-04-04T02:11:00.591Z,2.00
2023-04-04T02:16:22.371Z,1.70
2023-04-04T02:21:44.301Z,1.70
2023-04-04T02:27:06.581Z,1.80
2023-04-04T02:32:28.586Z,2.03
2023-04-04T02:37:51.618Z,1.92
2023-04-04T02:43:22.302Z,2.13
2023-04-04T02:48:45.607Z,1.75
2023-04-04T02:54:14.301Z,1.67
2023-04-04T02:59:36.320Z,1.65
2023-04-04T03:04:58.322Z,1.80
2023-04-04T03:10:20.600Z,2.15
2023-04-04T03:15:42.568Z,2.00
2023-04-04T03:21:05.300Z,2.17
2023-04-04T03:26:27.612Z,1.90
2023-04-04T03:31:49.660Z,1.80
2023-04-04T03:37:11.278Z,2.22
2023-04-04T03:42:36.256Z,2.30
2023-04-04T03:48:02.333Z,1.70
2023-04-04T03:53:33.285Z,2.00
2023-04-04T03:58:55.330Z,2.17
2023-04-04T04:04:17.389Z,2.13
2023-04-04T04:10:04.354Z,2.00
2023-04-04T04:15:27.569Z,2.40
2023-04-04T04:20:52.566Z,2.30
2023-04-04T04:26:15.605Z,2.55
2023-04-04T04:31:37.312Z,2.03
2023-04-04T04:37:00.718Z,2.50
2023-04-04T04:42:36.508Z,1.90
2023-04-04T04:47:58.314Z,2.08
2023-04-04T04:53:29.538Z,2.20
2023-04-04T04:58:54.664Z,2.08
2023-04-04T05:04:16.570Z,2.45
2023-04-04T05:09:53.517Z,1.60
2023-04-04T05:15:15.468Z,1.90
2023-04-04T05:20:40.671Z,2.03
2023-04-04T05:26:03.320Z,2.00
2023-04-04T05:31:28.552Z,2.17
2023-04-04T05:36:55.253Z,1.88
2023-04-04T05:42:19.247Z,2.20
2023-04-04T05:47:45.277Z,2.20
2023-04-04T05:53:16.242Z,2.17
2023-04-04T05:58:40.248Z,2.83
2023-04-04T06:04:04.550Z,2.13
2023-04-04T06:09:26.231Z,2.50
2023-04-04T06:14:51.246Z,2.42
2023-04-04T06:20:14.250Z,2.40
2023-04-04T06:25:37.162Z,2.75
2023-04-04T06:30:59.284Z,2.08
2023-04-04T06:36:22.501Z,2.63
2023-04-04T06:41:46.226Z,2.72
2023-04-04T06:47:13.546Z,2.60
2023-04-04T06:52:39.056Z,2.53
2023-04-04T06:58:01.459Z,2.40
2023-04-04T07:03:23.313Z,2.45
2023-04-04T07:08:45.262Z,2.47
2023-04-04T07:14:07.223Z,2.97
2023-04-04T07:19:35.145Z,2.70
2023-04-04T07:30:21.609Z,2.50
2023-04-04T07:35:43.200Z,2.63
2023-04-04T07:41:06.239Z,2.47
2023-04-04T07:46:28.469Z,2.50
2023-04-04T07:51:50.242Z,2.60
2023-04-04T07:57:12.180Z,2.50
2023-04-04T08:02:34.240Z,2.70
2023-04-04T08:07:56.202Z,2.72
2023-04-04T08:13:18.541Z,2.83
2023-04-04T08:18:40.188Z,2.60
2023-04-04T08:24:04.449Z,2.97
2023-04-04T08:29:26.118Z,2.70
2023-04-04T08:34:48.429Z,2.80
2023-04-04T08:40:11.226Z,2.55
2023-04-04T08:45:35.193Z,3.00
2023-04-04T08:50:58.247Z,3.28
2023-04-04T08:56:20.164Z,2.60
2023-04-04T09:01:43.140Z,2.63
2023-04-04T09:07:05.240Z,2.75
2023-04-04T09:12:29.199Z,2.95
2023-04-04T09:17:51.541Z,2.90
2023-04-04T09:23:16.182Z,2.95
2023-04-04T09:28:38.428Z,2.65
2023-04-04T09:34:00.791Z,3.05
2023-04-04T09:39:25.168Z,2.72
2023-04-04T09:44:47.217Z,2.28
2023-04-04T09:50:13.153Z,2.33
2023-04-04T09:55:43.355Z,2.38
2023-04-04T10:01:07.190Z,2.33
2023-04-04T10:06:30.225Z,2.35
2023-04-04T10:11:52.393Z,2.80
2023-04-04T10:17:20.438Z,2.20
2023-04-04T10:22:43.619Z,2.50
2023-04-04T10:28:06.168Z,2.05
2023-04-04T10:33:37.198Z,2.25
2023-04-04T10:39:22.111Z,1.80
2023-04-04T10:44:47.470Z,2.55
2023-04-04T10:50:11.152Z,2.35
2023-04-04T10:55:33.157Z,2.40
2023-04-04T11:01:01.114Z,2.40
2023-04-04T11:06:28.026Z,2.08
2023-04-04T11:12:17.004Z,2.30
2023-04-04T11:17:56.049Z,2.13
2023-04-04T11:23:29.031Z,2.25
2023-04-04T11:28:52.014Z,2.33
2023-04-04T11:34:19.004Z,2.35
2023-04-04T11:39:45.026Z,2.35
2023-04-04T11:45:07.007Z,2.45
2023-04-04T11:50:30.009Z,2.65
2023-04-04T11:55:55.996Z,2.58
2023-04-04T12:01:18.009Z,2.20
2023-04-04T12:06:42.022Z,2.67
2023-04-04T12:12:03.987Z,2.30
2023-04-04T12:17:25.988Z,2.25
2023-04-04T12:22:51.023Z,2.22
2023-04-04T12:28:14.027Z,2.70
2023-04-04T12:33:36.002Z,2.10
2023-04-04T12:39:09.001Z,2.00
2023-04-04T12:44:43.957Z,1.90
2023-04-04T12:50:05.982Z,1.92
2023-04-04T12:55:33.018Z,1.90
2023-04-04T13:01:00.124Z,2.13
2023-04-04T13:06:32.134Z,2.28
2023-04-04T13:12:11.978Z,1.90
2023-04-04T13:17:33.995Z,1.85
2023-04-04T13:22:55.982Z,2.00
2023-04-04T13:28:20.986Z,1.75
2023-04-04T13:33:43.967Z,2.05
2023-04-04T13:39:05.998Z,2.42
2023-04-04T13:44:27.978Z,2.55
2023-04-04T13:49:49.964Z,2.58
2023-04-04T13:55:13.963Z,2.70
2023-04-04T14:00:35.973Z,2.80
2023-04-04T14:06:00.339Z,3.05
2023-04-04T14:11:26.967Z,2.85
2023-04-04T14:16:48.980Z,2.80
2023-04-04T14:22:11.952Z,2.58
2023-04-04T14:27:33.965Z,2.67
2023-04-04T14:32:58.022Z,2.85
2023-04-04T14:38:19.981Z,3.00
2023-04-04T14:43:41.964Z,3.00
2023-04-04T14:49:03.966Z,2.33
2023-04-04T14:54:25.923Z,2.50
2023-04-04T15:00:02.964Z,2.67
2023-04-04T15:05:25.978Z,3.20
2023-04-04T15:10:47.953Z,3.10
2023-04-04T15:16:10.975Z,2.63
2023-04-04T15:21:33.969Z,2.55
2023-04-04T15:26:56.557Z,1.98
2023-04-04T15:32:19.015Z,3.00
2023-04-04T15:37:40.977Z,2.38
2023-04-04T15:43:03.942Z,2.75
2023-04-04T15:48:25.941Z,2.40
2023-04-04T15:53:47.935Z,2.80
2023-04-04T15:59:16.931Z,2.70
2023-04-04T16:04:38.908Z,2.75
2023-04-04T16:10:00.923Z,2.28
2023-04-04T16:15:22.928Z,3.38
2023-04-04T16:20:44.925Z,3.38
2023-04-04T16:26:06.943Z,2.97
2023-04-04T16:31:28.943Z,3.30
2023-04-04T16:36:50.963Z,2.83
2023-04-04T16:42:12.928Z,3.28
2023-04-04T16:47:34.995Z,2.70
2023-04-04T16:52:56.927Z,2.90
2023-04-04T16:58:25.910Z,3.00
2023-04-04T17:03:47.926Z,2.83
2023-04-04T17:09:09.920Z,3.35
2023-04-04T17:14:32.908Z,3.25
2023-04-04T17:19:54.922Z,3.05
2023-04-04T17:25:16.930Z,2.67
2023-04-04T17:30:39.046Z,2.67
2023-04-04T17:36:00.892Z,2.88
2023-04-04T17:41:22.897Z,3.30
2023-04-04T17:46:44.910Z,2.80
2023-04-04T17:52:06.935Z,3.05
2023-04-04T17:57:35.932Z,2.63
2023-04-04T18:02:58.019Z,2.63
2023-04-04T18:08:19.909Z,2.90
2023-04-04T18:13:41.897Z,2.88
2023-04-04T18:19:03.951Z,3.10
2023-04-04T18:24:25.917Z,2.80
2023-04-04T18:29:48.895Z,2.50
2023-04-04T18:35:10.875Z,2.75
2023-04-04T18:40:32.916Z,2.40
2023-04-04T18:45:54.916Z,3.20
2023-04-04T18:51:16.886Z,3.20
2023-04-04T18:56:39.003Z,3.33
2023-04-04T19:02:00.916Z,3.08
2023-04-04T19:07:28.875Z,6.72
2023-04-04T19:12:50.912Z,6.88
2023-04-04T19:18:12.933Z,4.68
2023-04-04T19:23:34.890Z,6.40
2023-04-04T19:28:56.902Z,8.80
2023-04-04T19:34:19.890Z,9.95
2023-04-04T19:39:42.868Z,7.53
2023-04-04T19:45:04.893Z,7.15
2023-04-04T19:50:41.884Z,7.30
2023-04-04T19:56:03.879Z,5.82
2023-04-04T20:01:32.040Z,5.35
2023-04-04T20:06:53.896Z,5.35
2023-04-04T20:12:17.876Z,4.95
2023-04-04T20:17:39.906Z,4.63
2023-04-04T20:23:01.868Z,3.25
2023-04-04T20:28:37.906Z,3.90
2023-04-04T20:33:59.878Z,3.38
2023-04-04T20:40:00.871Z,8.98
2023-04-04T20:45:46.945Z,10.43
2023-04-04T20:51:08.863Z,4.88
2023-04-04T20:56:52.873Z,5.40
2023-04-04T21:02:26.928Z,4.78
2023-04-04T21:07:49.847Z,4.30
2023-04-04T21:13:13.836Z,3.63
2023-04-04T21:18:37.843Z,3.17
2023-04-04T21:24:00.837Z,3.58
2023-04-04T21:29:28.837Z,3.47
2023-04-04T21:34:50.836Z,3.40
2023-04-04T21:40:14.834Z,3.30
2023-04-04T21:45:36.827Z,3.40
2023-04-04T21:50:58.796Z,3.13
2023-04-04T21:56:20.847Z,3.03
2023-04-04T22:01:43.852Z,3.28
2023-04-04T22:07:05.805Z,2.85
2023-04-04T22:12:29.812Z,3.30
2023-04-04T22:17:57.839Z,3.40
2023-04-04T22:23:23.117Z,3.20
2023-04-04T22:28:54.792Z,3.25
2023-04-04T22:34:16.816Z,3.05
2023-04-04T22:39:38.811Z,3.40
2023-04-04T22:45:00.815Z,3.30
2023-04-04T22:50:22.833Z,3.28
2023-04-04T22:55:45.783Z,3.85
2023-04-04T23:01:07.843Z,3.63
2023-04-04T23:06:29.810Z,3.60
2023-04-04T23:11:53.820Z,3.65
2023-04-04T23:17:15.797Z,4.25
2023-04-04T23:22:38.782Z,3.90
2023-04-04T23:28:00.779Z,3.55
2023-04-04T23:33:22.788Z,3.63
2023-04-04T23:38:44.781Z,3.95
2023-04-04T23:44:06.818Z,4.00
2023-04-04T23:49:28.782Z,4.18
2023-04-04T23:54:50.787Z,3.33
